createdAt,value
2019-01-06T00:00:25.921Z,1022.57
2019-01-06T00:01:25.864Z,1022.57
2019-01-06T00:02:25.823Z,1022.53
2019-01-06T00:03:25.788Z,1022.56
2019-01-06T00:04:25.746Z,1022.60
2019-01-06T00:05:25.707Z,1022.53
2019-01-06T00:06:25.708Z,1022.60
2019-01-06T00:07:25.676Z,1022.53
2019-01-06T00:08:25.628Z,1022.48
2019-01-06T00:09:25.566Z,1022.50
2019-01-06T00:10:25.537Z,1022.57
2019-01-06T00:11:25.512Z,1022.55
2019-01-06T00:12:25.453Z,1022.58
2019-01-06T00:13:25.414Z,1022.58
2019-01-06T00:14:25.384Z,1022.61
2019-01-06T00:15:25.352Z,1022.57
2019-01-06T00:16:25.308Z,1022.57
2019-01-06T00:17:25.287Z,1022.64
2019-01-06T00:18:25.246Z,1022.74
2019-01-06T00:19:25.209Z,1022.72
2019-01-06T00:20:25.194Z,1022.74
2019-01-06T00:21:25.109Z,1022.76
2019-01-06T00:22:25.068Z,1022.73
2019-01-06T00:23:25.066Z,1022.68
2019-01-06T00:24:25.029Z,1022.75
2019-01-06T00:25:24.981Z,1022.77
2019-01-06T00:26:24.943Z,1022.74
2019-01-06T00:27:24.884Z,1022.78
2019-01-06T00:28:24.854Z,1022.76
2019-01-06T00:29:24.819Z,1022.75
2019-01-06T00:30:24.785Z,1022.80
2019-01-06T00:31:24.802Z,1022.74
2019-01-06T00:32:24.710Z,1022.81
2019-01-06T00:33:24.679Z,1022.75
2019-01-06T00:34:24.653Z,1022.75
2019-01-06T00:35:24.630Z,1022.74
2019-01-06T00:36:24.589Z,1022.74
2019-01-06T00:37:24.522Z,1022.77
2019-01-06T00:38:24.491Z,1022.78
2019-01-06T00:39:24.447Z,1022.76
2019-01-06T00:40:24.434Z,1022.80
2019-01-06T00:41:24.401Z,1022.82
2019-01-06T00:42:24.329Z,1022.82
2019-01-06T00:43:24.298Z,1022.81
2019-01-06T00:44:24.279Z,1022.86
2019-01-06T00:45:24.244Z,1022.85
2019-01-06T00:46:24.219Z,1022.87
2019-01-06T00:47:24.198Z,1022.87
2019-01-06T00:48:24.115Z,1022.91
2019-01-06T00:49:24.100Z,1022.89
2019-01-06T00:50:24.043Z,1022.92
2019-01-06T00:51:24.007Z,1022.95
2019-01-06T00:52:23.970Z,1022.90
2019-01-06T00:53:23.945Z,1022.91
2019-01-06T00:54:23.885Z,1022.94
2019-01-06T00:55:23.859Z,1022.96
2019-01-06T00:56:23.831Z,1022.85
2019-01-06T00:57:23.815Z,1022.84
2019-01-06T00:58:23.736Z,1022.82
2019-01-06T00:59:23.703Z,1022.86
2019-01-06T01:00:23.671Z,1022.86
2019-01-06T01:01:23.638Z,1022.87
2019-01-06T01:02:23.589Z,1022.85
2019-01-06T01:03:23.561Z,1022.89
2019-01-06T01:04:23.554Z,1022.85
2019-01-06T01:05:23.486Z,1022.84
2019-01-06T01:06:23.445Z,1022.86
2019-01-06T01:07:23.409Z,1022.89
2019-01-06T01:08:23.390Z,1022.90
2019-01-06T01:09:23.334Z,1022.94
2019-01-06T01:10:23.297Z,1022.90
2019-01-06T01:11:23.284Z,1023.02
2019-01-06T01:12:23.236Z,1023.07
2019-01-06T01:13:23.222Z,1023.07
2019-01-06T01:14:23.152Z,1023.12
2019-01-06T01:15:23.118Z,1023.11
2019-01-06T01:16:23.095Z,1023.12
2019-01-06T01:17:23.041Z,1023.15
2019-01-06T01:18:22.994Z,1023.16
2019-01-06T01:19:22.960Z,1023.14
2019-01-06T01:20:22.949Z,1023.13
2019-01-06T01:21:22.905Z,1023.14
2019-01-06T01:22:22.852Z,1023.16
2019-01-06T01:23:22.817Z,1023.12
2019-01-06T01:24:22.787Z,1023.14
2019-01-06T01:25:22.737Z,1023.09
2019-01-06T01:26:22.715Z,1023.11
2019-01-06T01:27:22.665Z,1023.10
2019-01-06T01:28:22.655Z,1023.13
2019-01-06T01:29:22.591Z,1023.06
2019-01-06T01:30:22.561Z,1023.05
2019-01-06T01:31:22.542Z,1023.03
2019-01-06T01:32:22.502Z,1023.06
2019-01-06T01:33:22.447Z,1022.95
2019-01-06T01:34:22.411Z,1023.00
2019-01-06T01:35:22.371Z,1022.97
2019-01-06T01:36:22.349Z,1022.97
2019-01-06T01:37:22.293Z,1023.02
2019-01-06T01:38:22.261Z,1023.02
2019-01-06T01:39:22.216Z,1023.13
2019-01-06T01:40:22.187Z,1023.08
2019-01-06T01:41:22.148Z,1023.09
2019-01-06T01:42:22.108Z,1023.14
2019-01-06T01:43:22.084Z,1023.13
2019-01-06T01:44:22.038Z,1023.13
2019-01-06T01:45:22.006Z,1023.20
2019-01-06T01:46:21.952Z,1023.15
2019-01-06T01:47:21.927Z,1023.16
2019-01-06T01:48:21.887Z,1023.17
2019-01-06T01:49:21.874Z,1023.19
2019-01-06T01:50:21.811Z,1023.20
2019-01-06T01:51:21.837Z,1023.21
2019-01-06T01:52:21.738Z,1023.21
2019-01-06T01:53:21.700Z,1023.23
2019-01-06T01:54:21.673Z,1023.23
2019-01-06T01:55:21.638Z,1023.20
2019-01-06T01:56:21.592Z,1023.19
2019-01-06T01:57:21.556Z,1023.21
2019-01-06T01:58:21.513Z,1023.12
2019-01-06T01:59:21.486Z,1023.19
2019-01-06T02:00:21.442Z,1023.20
2019-01-06T02:01:21.401Z,1023.16
2019-01-06T02:02:21.362Z,1023.15
2019-01-06T02:03:21.329Z,1023.19
2019-01-06T02:04:21.289Z,1023.20
2019-01-06T02:05:21.250Z,1023.17
2019-01-06T02:06:21.234Z,1023.19
2019-01-06T02:07:21.209Z,1023.17
2019-01-06T02:08:21.138Z,1023.21
2019-01-06T02:09:21.108Z,1023.17
2019-01-06T02:10:21.078Z,1023.16
2019-01-06T02:11:21.038Z,1023.11
2019-01-06T02:12:21.015Z,1023.07
2019-01-06T02:13:20.963Z,1023.12
2019-01-06T02:14:20.917Z,1023.10
2019-01-06T02:15:20.873Z,1023.17
2019-01-06T02:16:20.843Z,1023.12
2019-01-06T02:17:20.804Z,1023.11
2019-01-06T02:18:20.763Z,1023.12
2019-01-06T02:19:20.757Z,1023.06
2019-01-06T02:20:20.712Z,1023.12
2019-01-06T02:21:20.662Z,1023.09
2019-01-06T02:22:20.633Z,1023.11
2019-01-06T02:23:20.614Z,1023.12
2019-01-06T02:24:20.551Z,1023.17
2019-01-06T02:25:20.513Z,1023.20
2019-01-06T02:26:20.479Z,1023.16
2019-01-06T02:27:20.448Z,1023.15
2019-01-06T02:28:20.394Z,1023.14
2019-01-06T02:29:20.361Z,1023.19
2019-01-06T02:30:20.316Z,1023.15
2019-01-06T02:31:20.284Z,1023.13
2019-01-06T02:32:20.245Z,1023.14
2019-01-06T02:33:20.297Z,1023.11
2019-01-06T02:34:20.172Z,1023.14
2019-01-06T02:35:20.140Z,1023.16
2019-01-06T02:36:20.098Z,1023.16
2019-01-06T02:37:20.055Z,1023.13
2019-01-06T02:38:20.025Z,1023.08
2019-01-06T02:39:20.000Z,1023.12
2019-01-06T02:40:19.970Z,1023.14
2019-01-06T02:41:19.935Z,1023.15
2019-01-06T02:42:19.886Z,1023.18
2019-01-06T02:43:19.857Z,1023.20
2019-01-06T02:44:19.804Z,1023.14
2019-01-06T02:45:19.774Z,1023.18
2019-01-06T02:46:19.731Z,1023.20
2019-01-06T02:47:19.692Z,1023.20
2019-01-06T02:48:19.655Z,1023.18
2019-01-06T02:49:19.628Z,1023.19
2019-01-06T02:50:19.582Z,1023.12
2019-01-06T02:51:19.550Z,1023.19
2019-01-06T02:52:19.515Z,1023.15
2019-01-06T02:53:19.470Z,1023.25
2019-01-06T02:54:19.452Z,1023.21
2019-01-06T02:55:19.382Z,1023.19
2019-01-06T02:56:19.344Z,1023.12
2019-01-06T02:57:19.325Z,1023.18
2019-01-06T02:58:19.283Z,1023.14
2019-01-06T02:59:19.262Z,1023.17
2019-01-06T03:00:19.218Z,1023.15
2019-01-06T03:01:19.196Z,1023.13
2019-01-06T03:02:19.124Z,1023.13
2019-01-06T03:03:19.086Z,1023.12
2019-01-06T03:04:19.061Z,1023.16
2019-01-06T03:05:19.027Z,1023.12
2019-01-06T03:06:18.974Z,1023.15
2019-01-06T03:07:18.940Z,1023.15
2019-01-06T03:08:18.906Z,1023.09
2019-01-06T03:09:18.887Z,1023.12
2019-01-06T03:10:18.856Z,1023.08
2019-01-06T03:11:18.790Z,1023.05
2019-01-06T03:12:18.757Z,1023.08
2019-01-06T03:13:18.726Z,1023.00
2019-01-06T03:14:18.686Z,1023.02
2019-01-06T03:15:18.652Z,1023.02
2019-01-06T03:16:18.611Z,1023.01
2019-01-06T03:17:18.575Z,1023.03
2019-01-06T03:18:18.535Z,1023.02
2019-01-06T03:19:18.508Z,1022.97
2019-01-06T03:20:18.472Z,1023.04
2019-01-06T03:21:18.466Z,1022.94
2019-01-06T03:22:18.402Z,1022.96
2019-01-06T03:23:18.351Z,1022.99
2019-01-06T03:24:18.317Z,1022.93
2019-01-06T03:25:18.262Z,1022.97
2019-01-06T03:26:18.231Z,1022.96
2019-01-06T03:27:18.230Z,1022.92
2019-01-06T03:28:18.184Z,1022.88
2019-01-06T03:29:18.121Z,1022.86
2019-01-06T03:30:18.117Z,1022.90
2019-01-06T03:31:18.052Z,1022.87
2019-01-06T03:32:18.016Z,1022.88
2019-01-06T03:33:17.980Z,1022.88
2019-01-06T03:34:17.958Z,1022.86
2019-01-06T03:35:17.898Z,1022.84
2019-01-06T03:36:17.895Z,1022.93
2019-01-06T03:37:17.821Z,1022.85
2019-01-06T03:38:17.783Z,1022.86
2019-01-06T03:39:17.748Z,1022.87
2019-01-06T03:40:17.702Z,1022.86
2019-01-06T03:41:17.674Z,1022.84
2019-01-06T03:42:17.671Z,1022.84
2019-01-06T03:43:17.609Z,1022.96
2019-01-06T03:44:17.568Z,1022.85
2019-01-06T03:45:17.525Z,1022.80
2019-01-06T03:46:17.499Z,1022.81
2019-01-06T03:47:17.483Z,1022.76
2019-01-06T03:48:17.404Z,1022.80
2019-01-06T03:49:17.391Z,1022.78
2019-01-06T03:50:17.332Z,1022.80
2019-01-06T03:51:17.308Z,1022.84
2019-01-06T03:52:17.262Z,1022.81
2019-01-06T03:53:17.224Z,1022.79
2019-01-06T03:54:17.214Z,1022.80
2019-01-06T03:55:17.205Z,1022.77
2019-01-06T03:56:17.109Z,1022.79
2019-01-06T03:57:17.107Z,1022.79
2019-01-06T03:58:17.047Z,1022.81
2019-01-06T03:59:16.997Z,1022.77
2019-01-06T04:00:17.008Z,1022.72
2019-01-06T04:01:16.923Z,1022.75
2019-01-06T04:02:16.883Z,1022.74
2019-01-06T04:03:16.865Z,1022.70
2019-01-06T04:04:16.839Z,1022.69
2019-01-06T04:05:16.774Z,1022.66
2019-01-06T04:06:16.729Z,1022.70
2019-01-06T04:07:16.720Z,1022.68
2019-01-06T04:08:16.665Z,1022.65
2019-01-06T04:09:16.647Z,1022.60
2019-01-06T04:10:16.605Z,1022.62
2019-01-06T04:11:16.549Z,1022.60
2019-01-06T04:12:16.550Z,1022.62
2019-01-06T04:13:16.474Z,1022.66
2019-01-06T04:14:16.445Z,1022.59
2019-01-06T04:15:16.420Z,1022.55
2019-01-06T04:16:16.365Z,1022.63
2019-01-06T04:17:16.335Z,1022.61
2019-01-06T04:18:16.313Z,1022.58
2019-01-06T04:19:16.268Z,1022.60
2019-01-06T04:20:16.211Z,1022.61
2019-01-06T04:21:16.179Z,1022.63
2019-01-06T04:22:16.136Z,1022.54
2019-01-06T04:23:16.137Z,1022.56
2019-01-06T04:24:16.088Z,1022.59
2019-01-06T04:25:16.040Z,1022.53
2019-01-06T04:26:15.990Z,1022.55
2019-01-06T04:27:15.982Z,1022.53
2019-01-06T04:28:15.921Z,1022.52
2019-01-06T04:29:15.873Z,1022.50
2019-01-06T04:30:15.844Z,1022.45
2019-01-06T04:31:15.803Z,1022.46
2019-01-06T04:32:15.844Z,1022.44
2019-01-06T04:33:15.728Z,1022.43
2019-01-06T04:34:15.708Z,1022.49
2019-01-06T04:35:15.659Z,1022.41
2019-01-06T04:36:15.619Z,1022.44
2019-01-06T04:37:15.610Z,1022.46
2019-01-06T04:38:15.544Z,1022.45
2019-01-06T04:39:15.499Z,1022.41
2019-01-06T04:40:15.470Z,1022.44
2019-01-06T04:41:15.440Z,1022.40
2019-01-06T04:42:15.394Z,1022.49
2019-01-06T04:43:15.360Z,1022.47
2019-01-06T04:44:15.320Z,1022.46
2019-01-06T04:45:15.280Z,1022.50
2019-01-06T04:46:15.286Z,1022.50
2019-01-06T04:47:15.205Z,1022.46
2019-01-06T04:48:15.175Z,1022.48
2019-01-06T04:49:15.130Z,1022.52
2019-01-06T04:50:15.118Z,1022.55
2019-01-06T04:51:15.067Z,1022.52
2019-01-06T04:52:15.021Z,1022.49
2019-01-06T04:53:15.004Z,1022.56
2019-01-06T04:54:14.958Z,1022.42
2019-01-06T04:55:14.911Z,1022.53
2019-01-06T04:56:14.872Z,1022.50
2019-01-06T04:57:14.834Z,1022.50
2019-01-06T04:58:14.798Z,1022.46
2019-01-06T04:59:14.766Z,1022.47
2019-01-06T05:00:14.720Z,1022.45
2019-01-06T05:01:14.686Z,1022.50
2019-01-06T05:02:14.645Z,1022.47
2019-01-06T05:03:15.881Z,1022.46
2019-01-06T05:04:14.575Z,1022.52
2019-01-06T05:05:14.556Z,1022.49
2019-01-06T05:06:14.516Z,1022.46
2019-01-06T05:07:14.464Z,1022.43
2019-01-06T05:08:14.422Z,1022.47
2019-01-06T05:09:14.385Z,1022.45
2019-01-06T05:10:14.346Z,1022.42
2019-01-06T05:11:14.310Z,1022.39
2019-01-06T05:12:14.266Z,1022.39
2019-01-06T05:13:14.230Z,1022.38
2019-01-06T05:14:14.205Z,1022.41
2019-01-06T05:15:14.192Z,1022.37
2019-01-06T05:16:14.118Z,1022.39
2019-01-06T05:17:14.087Z,1022.37
2019-01-06T05:18:14.071Z,1022.35
2019-01-06T05:19:14.007Z,1022.39
2019-01-06T05:20:13.972Z,1022.39
2019-01-06T05:21:13.936Z,1022.41
2019-01-06T05:22:13.891Z,1022.42
2019-01-06T05:23:13.866Z,1022.40
2019-01-06T05:24:13.828Z,1022.48
2019-01-06T05:25:13.803Z,1022.48
2019-01-06T05:26:13.747Z,1022.47
2019-01-06T05:27:13.731Z,1022.48
2019-01-06T05:28:13.691Z,1022.50
2019-01-06T05:29:13.636Z,1022.49
2019-01-06T05:30:13.611Z,1022.53
2019-01-06T05:31:13.566Z,1022.50
2019-01-06T05:32:13.521Z,1022.54
2019-01-06T05:33:13.491Z,1022.49
2019-01-06T05:34:13.458Z,1022.53
2019-01-06T05:35:13.402Z,1022.49
2019-01-06T05:36:13.378Z,1022.59
2019-01-06T05:37:13.327Z,1022.56
2019-01-06T05:38:13.318Z,1022.51
2019-01-06T05:39:13.261Z,1022.53
2019-01-06T05:40:13.224Z,1022.55
2019-01-06T05:41:13.183Z,1022.56
2019-01-06T05:42:13.149Z,1022.59
2019-01-06T05:43:13.140Z,1022.59
2019-01-06T05:44:13.070Z,1022.58
2019-01-06T05:45:13.034Z,1022.61
2019-01-06T05:46:13.025Z,1022.59
2019-01-06T05:47:12.960Z,1022.65
2019-01-06T05:48:12.939Z,1022.61
2019-01-06T05:49:12.880Z,1022.61
2019-01-06T05:50:12.859Z,1022.67
2019-01-06T05:51:12.827Z,1022.60
2019-01-06T05:52:12.775Z,1022.67
2019-01-06T05:53:12.739Z,1022.66
2019-01-06T05:54:12.728Z,1022.69
2019-01-06T05:55:12.687Z,1022.62
2019-01-06T05:56:12.627Z,1022.69
2019-01-06T05:57:12.589Z,1022.66
2019-01-06T05:58:12.558Z,1022.66
2019-01-06T05:59:12.514Z,1022.76
2019-01-06T06:00:12.482Z,1022.72
2019-01-06T06:01:12.454Z,1022.74
2019-01-06T06:02:12.434Z,1022.72
2019-01-06T06:03:12.413Z,1022.73
2019-01-06T06:04:12.329Z,1022.70
2019-01-06T06:05:12.303Z,1022.73
2019-01-06T06:06:12.255Z,1022.72
2019-01-06T06:07:12.219Z,1022.69
2019-01-06T06:08:12.175Z,1022.72
2019-01-06T06:09:12.144Z,1022.75
2019-01-06T06:10:12.099Z,1022.75
2019-01-06T06:11:12.071Z,1022.75
2019-01-06T06:12:12.031Z,1022.76
2019-01-06T06:13:11.986Z,1022.82
2019-01-06T06:14:11.967Z,1022.79
2019-01-06T06:15:11.919Z,1022.81
2019-01-06T06:16:11.880Z,1022.81
2019-01-06T06:17:11.866Z,1022.76
2019-01-06T06:18:11.825Z,1022.79
2019-01-06T06:19:11.774Z,1022.82
2019-01-06T06:20:11.729Z,1022.84
2019-01-06T06:21:11.689Z,1022.87
2019-01-06T06:22:11.653Z,1022.84
2019-01-06T06:23:11.629Z,1022.84
2019-01-06T06:24:11.598Z,1022.87
2019-01-06T06:25:11.551Z,1022.87
2019-01-06T06:26:11.505Z,1022.88
2019-01-06T06:27:11.476Z,1022.87
2019-01-06T06:28:11.429Z,1022.87
2019-01-06T06:29:11.418Z,1022.89
2019-01-06T06:30:11.401Z,1022.90
2019-01-06T06:31:11.357Z,1022.86
2019-01-06T06:32:11.304Z,1022.86
2019-01-06T06:33:11.280Z,1022.84
2019-01-06T06:34:11.231Z,1022.90
2019-01-06T06:35:11.166Z,1022.84
2019-01-06T06:36:11.127Z,1022.88
2019-01-06T06:37:11.097Z,1022.89
2019-01-06T06:38:11.072Z,1022.85
2019-01-06T06:39:11.022Z,1022.86
2019-01-06T06:40:10.999Z,1022.84
2019-01-06T06:41:10.949Z,1022.87
2019-01-06T06:42:10.919Z,1022.93
2019-01-06T06:43:10.875Z,1022.88
2019-01-06T06:44:10.829Z,1022.91
2019-01-06T06:45:10.811Z,1022.89
2019-01-06T06:46:10.767Z,1022.89
2019-01-06T06:47:10.752Z,1022.89
2019-01-06T06:48:10.707Z,1022.88
2019-01-06T06:49:10.650Z,1022.94
2019-01-06T06:50:10.597Z,1022.90
2019-01-06T06:51:10.571Z,1022.93
2019-01-06T06:52:10.562Z,1022.99
2019-01-06T06:53:10.515Z,1022.98
2019-01-06T06:54:10.458Z,1023.02
2019-01-06T06:55:10.426Z,1023.02
2019-01-06T06:56:10.382Z,1023.07
2019-01-06T06:57:10.373Z,1023.13
2019-01-06T06:58:10.312Z,1023.09
2019-01-06T06:59:10.267Z,1023.07
2019-01-06T07:00:10.242Z,1023.09
2019-01-06T07:01:10.236Z,1023.13
2019-01-06T07:02:10.183Z,1023.08
2019-01-06T07:03:10.122Z,1023.11
2019-01-06T07:04:10.113Z,1023.11
2019-01-06T07:05:10.047Z,1023.15
2019-01-06T07:06:10.018Z,1023.14
2019-01-06T07:07:10.003Z,1023.16
2019-01-06T07:08:09.938Z,1023.19
2019-01-06T07:09:09.903Z,1023.18
2019-01-06T07:10:09.857Z,1023.24
2019-01-06T07:11:09.836Z,1023.22
2019-01-06T07:12:09.799Z,1023.24
2019-01-06T07:13:09.758Z,1023.24
2019-01-06T07:14:09.723Z,1023.22
2019-01-06T07:15:09.672Z,1023.24
2019-01-06T07:16:09.649Z,1023.30
2019-01-06T07:17:09.604Z,1023.25
2019-01-06T07:18:09.573Z,1023.27
2019-01-06T07:19:09.523Z,1023.30
2019-01-06T07:20:09.493Z,1023.31
2019-01-06T07:21:09.482Z,1023.33
2019-01-06T07:22:09.411Z,1023.33
2019-01-06T07:23:09.371Z,1023.33
2019-01-06T07:24:09.337Z,1023.34
2019-01-06T07:25:09.309Z,1023.43
2019-01-06T07:26:09.282Z,1023.45
2019-01-06T07:27:09.223Z,1023.44
2019-01-06T07:28:09.182Z,1023.49
2019-01-06T07:29:09.153Z,1023.49
2019-01-06T07:30:09.108Z,1023.48
2019-01-06T07:31:09.079Z,1023.53
2019-01-06T07:32:09.058Z,1023.55
2019-01-06T07:33:08.998Z,1023.51
2019-01-06T07:34:08.968Z,1023.53
2019-01-06T07:35:08.946Z,1023.56
2019-01-06T07:36:08.882Z,1023.57
2019-01-06T07:37:08.848Z,1023.57
2019-01-06T07:38:08.812Z,1023.57
2019-01-06T07:39:08.799Z,1023.60
2019-01-06T07:40:08.758Z,1023.66
2019-01-06T07:41:08.698Z,1023.63
2019-01-06T07:42:08.668Z,1023.65
2019-01-06T07:43:08.628Z,1023.65
2019-01-06T07:44:08.590Z,1023.66
2019-01-06T07:45:08.551Z,1023.64
2019-01-06T07:46:08.507Z,1023.67
2019-01-06T07:47:08.478Z,1023.65
2019-01-06T07:48:08.434Z,1023.69
2019-01-06T07:49:08.395Z,1023.70
2019-01-06T07:50:08.369Z,1023.70
2019-01-06T07:51:08.323Z,1023.68
2019-01-06T07:52:08.293Z,1023.72
2019-01-06T07:53:08.278Z,1023.73
2019-01-06T07:54:08.208Z,1023.70
2019-01-06T07:55:08.187Z,1023.74
2019-01-06T07:56:08.135Z,1023.77
2019-01-06T07:57:08.111Z,1023.73
2019-01-06T07:58:08.070Z,1023.78
2019-01-06T07:59:08.040Z,1023.75
2019-01-06T08:00:15.230Z,1023.72
2019-01-06T08:01:07.946Z,1023.80
2019-01-06T08:02:07.943Z,1023.79
2019-01-06T08:03:07.873Z,1023.78
2019-01-06T08:04:07.870Z,1023.75
2019-01-06T08:05:07.798Z,1023.79
2019-01-06T08:06:07.794Z,1023.79
2019-01-06T08:07:07.718Z,1023.79
2019-01-06T08:08:07.684Z,1023.81
2019-01-06T08:09:07.658Z,1023.79
2019-01-06T08:10:07.627Z,1023.79
2019-01-06T08:11:07.602Z,1023.76
2019-01-06T08:12:07.551Z,1023.79
2019-01-06T08:13:07.509Z,1023.80
2019-01-06T08:14:07.454Z,1023.82
2019-01-06T08:15:07.436Z,1023.79
2019-01-06T08:16:07.391Z,1023.86
2019-01-06T08:17:07.351Z,1023.86
2019-01-06T08:18:07.342Z,1023.90
2019-01-06T08:19:07.297Z,1023.91
2019-01-06T08:20:07.242Z,1023.86
2019-01-06T08:21:07.202Z,1023.88
2019-01-06T08:22:07.185Z,1023.88
2019-01-06T08:23:07.123Z,1023.87
2019-01-06T08:24:07.086Z,1023.88
2019-01-06T08:25:07.056Z,1023.89
2019-01-06T08:26:07.011Z,1023.89
2019-01-06T08:27:06.989Z,1023.91
2019-01-06T08:28:06.960Z,1023.88
2019-01-06T08:29:06.913Z,1023.92
2019-01-06T08:30:06.866Z,1023.92
2019-01-06T08:31:06.851Z,1023.90
2019-01-06T08:32:06.795Z,1023.90
2019-01-06T08:33:06.791Z,1023.90
2019-01-06T08:34:06.732Z,1023.90
2019-01-06T08:35:06.690Z,1023.89
2019-01-06T08:36:06.636Z,1023.96
2019-01-06T08:37:06.597Z,1023.90
2019-01-06T08:38:06.568Z,1023.91
2019-01-06T08:39:06.551Z,1023.94
2019-01-06T08:40:06.498Z,1023.92
2019-01-06T08:41:06.451Z,1023.95
2019-01-06T08:42:06.423Z,1023.94
2019-01-06T08:43:06.375Z,1023.89
2019-01-06T08:44:06.342Z,1023.94
2019-01-06T08:45:06.298Z,1023.96
2019-01-06T08:46:06.261Z,1023.95
2019-01-06T08:47:06.237Z,1023.99
2019-01-06T08:48:06.189Z,1023.95
2019-01-06T08:49:06.171Z,1024.01
2019-01-06T08:50:06.116Z,1023.98
2019-01-06T08:51:06.091Z,1023.95
2019-01-06T08:52:06.055Z,1023.96
2019-01-06T08:53:06.006Z,1023.93
2019-01-06T08:54:05.966Z,1023.98
2019-01-06T08:55:05.932Z,1023.98
2019-01-06T08:56:05.902Z,1024.04
2019-01-06T08:57:05.854Z,1024.07
2019-01-06T08:58:05.813Z,1024.04
2019-01-06T08:59:05.780Z,1024.04
2019-01-06T09:00:05.740Z,1024.08
2019-01-06T09:01:05.704Z,1024.10
2019-01-06T09:02:05.699Z,1024.06
2019-01-06T09:03:05.654Z,1024.04
2019-01-06T09:04:05.588Z,1024.08
2019-01-06T09:05:05.549Z,1024.14
2019-01-06T09:06:05.567Z,1024.11
2019-01-06T09:07:05.490Z,1024.07
2019-01-06T09:08:05.433Z,1024.12
2019-01-06T09:09:05.399Z,1024.10
2019-01-06T09:10:05.374Z,1024.14
2019-01-06T09:11:05.343Z,1024.15
2019-01-06T09:12:05.324Z,1024.10
2019-01-06T09:13:05.252Z,1024.14
2019-01-06T09:14:05.218Z,1024.15
2019-01-06T09:15:05.183Z,1024.12
2019-01-06T09:16:05.144Z,1024.19
2019-01-06T09:17:05.128Z,1024.16
2019-01-06T09:18:05.094Z,1024.14
2019-01-06T09:19:05.039Z,1024.17
2019-01-06T09:20:04.999Z,1024.19
2019-01-06T09:21:04.962Z,1024.18
2019-01-06T09:22:04.926Z,1024.21
2019-01-06T09:23:04.887Z,1024.23
2019-01-06T09:24:04.848Z,1024.24
2019-01-06T09:25:04.853Z,1024.32
2019-01-06T09:26:04.765Z,1024.27
2019-01-06T09:27:04.730Z,1024.28
2019-01-06T09:28:04.692Z,1024.27
2019-01-06T09:29:04.657Z,1024.30
2019-01-06T09:30:04.658Z,1024.29
2019-01-06T09:31:04.619Z,1024.31
2019-01-06T09:32:04.570Z,1024.27
2019-01-06T09:33:04.545Z,1024.30
2019-01-06T09:34:04.499Z,1024.29
2019-01-06T09:35:04.439Z,1024.34
2019-01-06T09:36:04.395Z,1024.34
2019-01-06T09:37:04.353Z,1024.30
2019-01-06T09:38:04.328Z,1024.29
2019-01-06T09:39:04.296Z,1024.33
2019-01-06T09:40:04.248Z,1024.36
2019-01-06T09:41:04.234Z,1024.36
2019-01-06T09:42:04.175Z,1024.35
2019-01-06T09:43:04.143Z,1024.39
2019-01-06T09:44:04.134Z,1024.39
2019-01-06T09:45:04.063Z,1024.41
2019-01-06T09:46:04.049Z,1024.37
2019-01-06T09:47:03.976Z,1024.39
2019-01-06T09:48:03.976Z,1024.36
2019-01-06T09:49:03.914Z,1024.37
2019-01-06T09:50:03.901Z,1024.41
2019-01-06T09:51:03.828Z,1024.39
2019-01-06T09:52:03.800Z,1024.40
2019-01-06T09:53:03.755Z,1024.34
2019-01-06T09:54:03.714Z,1024.39
2019-01-06T09:55:03.719Z,1024.34
2019-01-06T09:56:03.655Z,1024.38
2019-01-06T09:57:03.615Z,1024.38
2019-01-06T09:58:03.587Z,1024.39
2019-01-06T09:59:03.561Z,1024.41
2019-01-06T10:00:03.506Z,1024.43
2019-01-06T10:01:03.462Z,1024.43
2019-01-06T10:02:03.453Z,1024.43
2019-01-06T10:03:03.389Z,1024.43
2019-01-06T10:04:03.351Z,1024.45
2019-01-06T10:05:03.309Z,1024.47
2019-01-06T10:06:03.269Z,1024.41
2019-01-06T10:07:03.231Z,1024.46
2019-01-06T10:08:03.230Z,1024.43
2019-01-06T10:09:03.180Z,1024.46
2019-01-06T10:10:03.130Z,1024.40
2019-01-06T10:11:03.091Z,1024.38
2019-01-06T10:12:03.047Z,1024.38
2019-01-06T10:13:03.016Z,1024.37
2019-01-06T10:14:02.981Z,1024.41
2019-01-06T10:15:02.941Z,1024.37
2019-01-06T10:16:02.931Z,1024.37
2019-01-06T10:17:02.877Z,1024.39
2019-01-06T10:18:02.836Z,1024.40
2019-01-06T10:19:02.797Z,1024.38
2019-01-06T10:20:02.753Z,1024.42
2019-01-06T10:21:02.718Z,1024.41
2019-01-06T10:22:02.701Z,1024.42
2019-01-06T10:23:02.665Z,1024.42
2019-01-06T10:24:02.605Z,1024.43
2019-01-06T10:25:02.568Z,1024.43
2019-01-06T10:26:02.530Z,1024.43
2019-01-06T10:27:02.501Z,1024.41
2019-01-06T10:28:02.463Z,1024.44
2019-01-06T10:29:02.452Z,1024.44
2019-01-06T10:30:02.377Z,1024.43
2019-01-06T10:31:02.365Z,1024.43
2019-01-06T10:32:02.301Z,1024.45
2019-01-06T10:33:02.298Z,1024.49
2019-01-06T10:34:02.232Z,1024.46
2019-01-06T10:35:02.194Z,1024.41
2019-01-06T10:36:02.158Z,1024.41
2019-01-06T10:37:02.127Z,1024.42
2019-01-06T10:38:02.115Z,1024.37
2019-01-06T10:39:02.042Z,1024.40
2019-01-06T10:40:02.028Z,1024.37
2019-01-06T10:41:01.975Z,1024.47
2019-01-06T10:42:01.943Z,1024.40
2019-01-06T10:43:01.923Z,1024.41
2019-01-06T10:44:01.886Z,1024.40
2019-01-06T10:45:01.821Z,1024.43
2019-01-06T10:46:01.782Z,1024.41
2019-01-06T10:47:01.749Z,1024.39
2019-01-06T10:48:01.702Z,1024.43
2019-01-06T10:49:01.674Z,1024.41
2019-01-06T10:50:01.638Z,1024.44
2019-01-06T10:51:01.593Z,1024.41
2019-01-06T10:52:01.573Z,1024.39
2019-01-06T10:53:01.512Z,1024.41
2019-01-06T10:54:01.480Z,1024.40
2019-01-06T10:55:01.458Z,1024.42
2019-01-06T10:56:01.414Z,1024.49
2019-01-06T10:57:01.380Z,1024.42
2019-01-06T10:58:01.337Z,1024.42
2019-01-06T10:59:01.313Z,1024.40
2019-01-06T11:00:01.363Z,1024.41
2019-01-06T11:01:01.234Z,1024.44
2019-01-06T11:02:01.189Z,1024.42
2019-01-06T11:03:01.153Z,1024.43
2019-01-06T11:04:01.119Z,1024.41
2019-01-06T11:05:01.074Z,1024.42
2019-01-06T11:06:01.035Z,1024.42
2019-01-06T11:07:01.042Z,1024.41
2019-01-06T11:08:00.966Z,1024.37
2019-01-06T11:09:00.922Z,1024.39
2019-01-06T11:10:00.905Z,1024.41
2019-01-06T11:11:00.848Z,1024.39
2019-01-06T11:12:00.814Z,1024.40
2019-01-06T11:13:00.780Z,1024.32
2019-01-06T11:14:00.733Z,1024.35
2019-01-06T11:15:00.749Z,1024.38
2019-01-06T11:16:00.689Z,1024.36
2019-01-06T11:17:00.630Z,1024.38
2019-01-06T11:18:00.627Z,1024.33
2019-01-06T11:19:00.559Z,1024.34
2019-01-06T11:20:00.516Z,1024.30
2019-01-06T11:21:00.489Z,1024.33
2019-01-06T11:22:00.444Z,1024.32
2019-01-06T11:23:00.420Z,1024.31
2019-01-06T11:24:00.365Z,1024.38
2019-01-06T11:25:00.335Z,1024.30
2019-01-06T11:26:00.303Z,1024.35
2019-01-06T11:27:00.260Z,1024.33
2019-01-06T11:28:00.235Z,1024.29
2019-01-06T11:29:00.213Z,1024.33
2019-01-06T11:30:00.176Z,1024.33
2019-01-06T11:31:00.109Z,1024.32
2019-01-06T11:32:00.088Z,1024.30
2019-01-06T11:33:00.030Z,1024.31
2019-01-06T11:34:00.034Z,1024.33
2019-01-06T11:34:59.984Z,1024.34
2019-01-06T11:35:59.944Z,1024.32
2019-01-06T11:36:59.879Z,1024.31
2019-01-06T11:37:59.903Z,1024.32
2019-01-06T11:39:00.790Z,1024.34
2019-01-06T11:39:59.781Z,1024.28
2019-01-06T11:40:59.755Z,1024.35
2019-01-06T11:41:59.703Z,1024.35
2019-01-06T11:42:59.666Z,1024.35
2019-01-06T11:43:59.634Z,1024.30
2019-01-06T11:44:59.592Z,1024.35
2019-01-06T11:45:59.554Z,1024.36
2019-01-06T11:46:59.510Z,1024.32
2019-01-06T11:47:59.504Z,1024.32
2019-01-06T11:48:59.506Z,1024.30
2019-01-06T11:49:59.419Z,1024.29
2019-01-06T11:50:59.359Z,1024.28
2019-01-06T11:51:59.329Z,1024.30
2019-01-06T11:52:59.299Z,1024.26
2019-01-06T11:53:59.252Z,1024.27
2019-01-06T11:54:59.221Z,1024.26
2019-01-06T11:55:59.192Z,1024.25
2019-01-06T11:56:59.152Z,1024.20
2019-01-06T11:57:59.112Z,1024.23
2019-01-06T11:58:59.075Z,1024.18
2019-01-06T11:59:59.074Z,1024.21
2019-01-06T12:00:59.007Z,1024.21
2019-01-06T12:01:58.957Z,1024.21
2019-01-06T12:02:58.930Z,1024.22
2019-01-06T12:03:58.905Z,1024.18
2019-01-06T12:04:58.855Z,1024.19